Stewards Mill, Texas
Current Conditions -  °F | °C
As of 9:53 AM on Thursday 27 Nov 2014 (Local Time) from KCRS Reporting Station
Clear Clear  
Wind Chill: 46°   Ceiling: Unl
Heat Index: 49°   Visibility: 10mi
Dew Point: 28°   Wind: 7mph
Humidity: 44%   Direction: 40°NE
Pressure: 30.56"   Gusts: NA
Location:  31.9013°N, 96.2795°W
Report Text: KCRS 271553Z AUTO 04006KT 10SM CLR 09/M02 A3056 RMK AO2 SLP348 T00941022
Loading
Personal Weather Stations






























Interactive Weather Map New forecast layout! Learn more

10-Day Weather Forecast

Advertisements
Track Severe Weather on mobile